Time;durP1;ratioP1;P1;durP2;ratioP2;P2;SDS_P1;SDS_P2;PMS_P1;PMS_P2;Temp;Humidity;BMP_temperature;BMP_pressure;BME280_temperature;BME280_humidity;BME280_pressure;Samples;Min_cycle;Max_cycle;Signal;HPM_P1;HPM_P2
2021/10/03 00:00:37;;;;;;;;;;;;;;;;;;2123798;28;1302;-82
2021/10/03 00:01:41;;;;;;;;;;;;;;;;;;2115838;28;1985;-83
2021/10/03 00:02:42;;;;;;;;;;;;;;;;;;2116119;28;1229;-83
2021/10/03 00:03:47;;;;;;;;;;;;;;;;;;2115566;28;1953;-84
2021/10/03 00:04:47;;;;;;;;;;;;;;;;;;2107386;28;1233;-84
2021/10/03 00:05:52;;;;;;;;;;;;;;;;;;2107976;28;1627;-84
2021/10/03 00:06:53;;;;;;;;;;;;;;;;;;2107509;28;1278;-84
2021/10/03 00:07:59;;;;;;;;;;;;;;;;;;2116089;28;888;-84
2021/10/03 00:09:00;;;;;;;;;;;;;;;;;;2107278;28;1285;-84
2021/10/03 00:10:02;;;;;;;;;;;;;;;;;;2099105;28;1350;-84
2021/10/03 00:11:04;;;;;;;;;;;;;;;;;;2114656;28;2039;-83
2021/10/03 00:12:05;;;;;;;;;;;;;;;;;;2115685;28;1221;-84
2021/10/03 00:13:07;;;;;;;;;;;;;;;;;;2115450;28;1400;-84
2021/10/03 00:14:12;;;;;;;;;;;;;;;;;;2115437;28;1133;-83
2021/10/03 00:15:15;;;;;;;;;;;;;;;;;;2115519;28;1156;-84
2021/10/03 00:16:17;;;;;;;;;;;;;;;;;;2107596;28;1444;-83
2021/10/03 00:17:18;;;;;;;;;;;;;;;;;;2107274;28;1417;-83
2021/10/03 00:18:21;;;;;;;;;;;;;;;;;;2123794;28;1227;-84
2021/10/03 00:19:22;;;;;;;;;;;;;;;;;;2124042;28;1758;-84
2021/10/03 00:20:24;;;;;;;;;;;;;;;;;;2123758;28;1667;-84
2021/10/03 00:21:26;;;;;;;;;;;;;;;;;;2115576;28;1262;-83
2021/10/03 00:22:27;;;;;;;;;;;;;;;;;;2107368;28;1977;-83
2021/10/03 00:23:30;;;;;;;;;;;;;;;;;;2106910;28;1963;-83
2021/10/03 00:24:31;;;;;;;;;;;;;;;;;;2107222;28;1565;-83
2021/10/03 00:25:33;;;;;;;;;;;;;;;;;;2108635;28;1285;-83
2021/10/03 00:26:34;;;;;;;;;;;;;;;;;;2108663;28;1328;-83
2021/10/03 00:27:37;;;;;;;;;;;;;;;;;;2108908;28;1189;-82
2021/10/03 00:28:38;;;;;;;;;;;;;;;;;;2116903;28;1411;-83
2021/10/03 00:29:39;;;;;;;;;;;;;;;;;;2121917;27;1316;-83
2021/10/03 00:30:44;;;;;;;;;;;;;;;;;;2113326;28;1992;-82
2021/10/03 00:31:45;;;;;;;;;;;;;;;;;;2109129;27;1200;-82
2021/10/03 00:32:47;;;;;;;;;;;;;;;;;;2117281;27;1632;-82
2021/10/03 00:33:48;;;;;;;;;;;;;;;;;;2120904;27;894;-82
2021/10/03 00:34:50;;;;;;;;;;;;;;;;;;2117276;28;1331;-82
2021/10/03 00:35:51;;;;;;;;;;;;;;;;;;2117009;28;1173;-83
2021/10/03 00:36:53;;;;;;;;;;;;;;;;;;2116689;28;1349;-83
2021/10/03 00:37:54;;;;;;;;;;;;;;;;;;2116848;28;1196;-82
2021/10/03 00:38:56;;;;;;;;;;;;;;;;;;2108992;28;2100;-82
2021/10/03 00:39:57;;;;;;;;;;;;;;;;;;2100504;28;1183;-83
2021/10/03 00:40:59;;;;;;;;;;;;;;;;;;2107184;28;1842;-83
2021/10/03 00:42:00;;;;;;;;;;;;;;;;;;2117030;27;1975;-83
2021/10/03 00:43:03;;;;;;;;;;;;;;;;;;2117142;28;1509;-83
2021/10/03 00:44:04;;;;;;;;;;;;;;;;;;2125825;27;1301;-82
2021/10/03 00:45:07;;;;;;;;;;;;;;;;;;2116503;28;1666;-83
2021/10/03 00:46:09;;;;;;;;;;;;;;;;;;2116819;27;1294;-82
2021/10/03 00:47:11;;;;;;;;;;;;;;;;;;2113639;28;1359;-82
2021/10/03 00:48:12;;;;;;;;;;;;;;;;;;2117114;28;1202;-83
2021/10/03 00:49:14;;;;;;;;;;;;;;;;;;2108587;28;1317;-83
2021/10/03 00:50:15;;;;;;;;;;;;;;;;;;2117410;28;1455;-84
2021/10/03 00:51:17;;;;;;;;;;;;;;;;;;2116754;28;1226;-83
2021/10/03 00:52:19;;;;;;;;;;;;;;;;;;2108750;28;1213;-83
2021/10/03 00:53:21;;;;;;;;;;;;;;;;;;2108248;28;1500;-83
2021/10/03 00:54:23;;;;;;;;;;;;;;;;;;2108699;28;1511;-83
2021/10/03 00:55:25;;;;;;;;;;;;;;;;;;2119636;27;1242;-83
2021/10/03 00:56:26;;;;;;;;;;;;;;;;;;2116677;27;1582;-83
2021/10/03 00:57:28;;;;;;;;;;;;;;;;;;2116783;28;1179;-83
2021/10/03 00:58:28;;;;;;;;;;;;;;;;;;2108434;28;1285;-82
2021/10/03 00:59:31;;;;;;;;;;;;;;;;;;2108308;28;1468;-83
2021/10/03 01:00:32;;;;;;;;;;;;;;;;;;2108153;28;1326;-83
2021/10/03 01:01:36;;;;;;;;;;;;;;;;;;2109648;28;1568;-83
2021/10/03 01:02:37;;;;;;;;;;;;;;;;;;2116586;28;1981;-83
2021/10/03 01:03:39;;;;;;;;;;;;;;;;;;2108470;28;1413;-83
2021/10/03 01:04:40;;;;;;;;;;;;;;;;;;2108743;28;1230;-83
2021/10/03 01:05:41;;;;;;;;;;;;;;;;;;2108455;28;1274;-83
2021/10/03 01:06:42;;;;;;;;;;;;;;;;;;2100422;28;1314;-83
2021/10/03 01:07:45;;;;;;;;;;;;;;;;;;2108650;28;1389;-83
2021/10/03 01:08:46;;;;;;;;;;;;;;;;;;2108505;28;1247;-83
2021/10/03 01:09:47;;;;;;;;;;;;;;;;;;2099984;28;1243;-83
2021/10/03 01:10:49;;;;;;;;;;;;;;;;;;2116979;28;1340;-83
2021/10/03 01:11:51;;;;;;;;;;;;;;;;;;2108334;28;1373;-82
2021/10/03 01:12:56;;;;;;;;;;;;;;;;;;2108752;28;1720;-83
2021/10/03 01:13:58;;;;;;;;;;;;;;;;;;2101072;28;1388;-82
2021/10/03 01:15:00;;;;;;;;;;;;;;;;;;2100130;28;1405;-82
2021/10/03 01:16:01;;;;;;;;;;;;;;;;;;2108780;28;1553;-82
2021/10/03 01:17:05;;;;;;;;;;;;;;;;;;2108479;28;1638;-82
2021/10/03 01:18:06;;;;;;;;;;;;;;;;;;2117130;28;1409;-82
2021/10/03 01:19:08;;;;;;;;;;;;;;;;;;2108569;28;1414;-82
2021/10/03 01:20:10;;;;;;;;;;;;;;;;;;2108667;27;1527;-83
2021/10/03 01:21:15;;;;;;;;;;;;;;;;;;2117183;27;1235;-82
2021/10/03 01:22:15;;;;;;;;;;;;;;;;;;2117032;28;1973;-83
2021/10/03 01:23:17;;;;;;;;;;;;;;;;;;2116493;28;2029;-82
2021/10/03 01:24:18;;;;;;;;;;;;;;;;;;2108583;28;1416;-82
2021/10/03 01:25:20;;;;;;;;;;;;;;;;;;2108538;28;1313;-82
2021/10/03 01:26:22;;;;;;;;;;;;;;;;;;2124996;27;1257;-82
2021/10/03 01:27:22;;;;;;;;;;;;;;;;;;2116500;27;1294;-82
2021/10/03 01:28:24;;;;;;;;;;;;;;;;;;2116791;28;1225;-82
2021/10/03 01:29:26;;;;;;;;;;;;;;;;;;2116463;28;1312;-82
2021/10/03 01:30:27;;;;;;;;;;;;;;;;;;2116163;28;1491;-82
2021/10/03 01:31:31;;;;;;;;;;;;;;;;;;2116712;28;1342;-81
2021/10/03 01:32:32;;;;;;;;;;;;;;;;;;2124753;27;1599;-82
2021/10/03 01:33:34;;;;;;;;;;;;;;;;;;2117113;28;1729;-83
2021/10/03 01:34:36;;;;;;;;;;;;;;;;;;2117025;28;1395;-82
2021/10/03 01:35:37;;;;;;;;;;;;;;;;;;2117115;28;1818;-82
2021/10/03 01:36:40;;;;;;;;;;;;;;;;;;2116607;28;1684;-82
2021/10/03 01:37:41;;;;;;;;;;;;;;;;;;2125265;27;1189;-82
2021/10/03 01:38:43;;;;;;;;;;;;;;;;;;2111735;28;1811;-83
2021/10/03 01:39:44;;;;;;;;;;;;;;;;;;2099874;28;1321;-82
2021/10/03 01:40:47;;;;;;;;;;;;;;;;;;2107850;28;1540;-82
2021/10/03 01:41:48;;;;;;;;;;;;;;;;;;2108625;28;1516;-82
2021/10/03 01:42:50;;;;;;;;;;;;;;;;;;2107569;28;1905;-82
2021/10/03 01:43:50;;;;;;;;;;;;;;;;;;2110975;28;1336;-82
2021/10/03 01:44:52;;;;;;;;;;;;;;;;;;2118271;28;1511;-83
2021/10/03 01:45:53;;;;;;;;;;;;;;;;;;2122122;28;1674;-83
2021/10/03 01:46:55;;;;;;;;;;;;;;;;;;2123310;28;1548;-83
2021/10/03 01:48:05;;;;;;;;;;;;;;;;;;2117827;28;1687;-83
2021/10/03 01:49:06;;;;;;;;;;;;;;;;;;2125751;27;1272;-83
2021/10/03 01:50:07;;;;;;;;;;;;;;;;;;2121315;28;1644;-82
2021/10/03 01:51:10;;;;;;;;;;;;;;;;;;2116395;28;1702;-82
2021/10/03 01:52:13;;;;;;;;;;;;;;;;;;2116949;28;1612;-82
2021/10/03 01:53:16;;;;;;;;;;;;;;;;;;2100341;28;1994;-83
2021/10/03 01:54:17;;;;;;;;;;;;;;;;;;2100392;28;1536;-82
2021/10/03 01:55:19;;;;;;;;;;;;;;;;;;2108108;28;1527;-82
2021/10/03 01:56:22;;;;;;;;;;;;;;;;;;2116663;28;1304;-83
2021/10/03 01:57:22;;;;;;;;;;;;;;;;;;2108843;28;1224;-82
2021/10/03 01:58:27;;;;;;;;;;;;;;;;;;2101158;28;1684;-82
2021/10/03 01:59:28;;;;;;;;;;;;;;;;;;2116947;28;1445;-82
2021/10/03 02:00:30;;;;;;;;;;;;;;;;;;2110396;28;1433;-82
2021/10/03 02:01:33;;;;;;;;;;;;;;;;;;2108157;28;1460;-82
2021/10/03 02:02:34;;;;;;;;;;;;;;;;;;2108147;28;1910;-82
2021/10/03 02:03:35;;;;;;;;;;;;;;;;;;2107952;28;1452;-82
2021/10/03 02:04:36;;;;;;;;;;;;;;;;;;2107744;28;1295;-82
2021/10/03 02:05:40;;;;;;;;;;;;;;;;;;2108125;28;1461;-82
2021/10/03 02:06:41;;;;;;;;;;;;;;;;;;2108429;28;1682;-82
2021/10/03 02:07:45;;;;;;;;;;;;;;;;;;2107898;28;1294;-83
2021/10/03 02:08:48;;;;;;;;;;;;;;;;;;2121885;27;845;-82
2021/10/03 02:09:50;;;;;;;;;;;;;;;;;;2124963;27;1246;-82
2021/10/03 02:10:52;;;;;;;;;;;;;;;;;;2116552;28;1734;-82
2021/10/03 02:11:55;;;;;;;;;;;;;;;;;;2116353;28;1399;-83
2021/10/03 02:12:56;;;;;;;;;;;;;;;;;;2125213;27;861;-82
2021/10/03 02:13:58;;;;;;;;;;;;;;;;;;2124633;27;2008;-82
2021/10/03 02:14:59;;;;;;;;;;;;;;;;;;2115996;28;1426;-87
2021/10/03 02:16:02;;;;;;;;;;;;;;;;;;2108208;28;1358;-82
2021/10/03 02:17:05;;;;;;;;;;;;;;;;;;2111603;28;1466;-82
2021/10/03 02:18:08;;;;;;;;;;;;;;;;;;2099431;28;1306;-82
2021/10/03 02:19:09;;;;;;;;;;;;;;;;;;2083317;28;1358;-83
2021/10/03 02:20:12;;;;;;;;;;;;;;;;;;2088774;28;1792;-83
2021/10/03 02:21:13;;;;;;;;;;;;;;;;;;2099923;28;1396;-82
2021/10/03 02:22:15;;;;;;;;;;;;;;;;;;2099240;28;1579;-85
2021/10/03 02:23:18;;;;;;;;;;;;;;;;;;2108296;28;1976;-82
2021/10/03 02:24:19;;;;;;;;;;;;;;;;;;2108061;28;1305;-82
2021/10/03 02:25:20;;;;;;;;;;;;;;;;;;2099294;28;1504;-82
2021/10/03 02:26:22;;;;;;;;;;;;;;;;;;2099911;28;1356;-83
2021/10/03 02:27:24;;;;;;;;;;;;;;;;;;2108499;28;1315;-82
2021/10/03 02:28:26;;;;;;;;;;;;;;;;;;2108140;28;1261;-83
2021/10/03 02:29:27;;;;;;;;;;;;;;;;;;2100022;28;1581;-83
2021/10/03 02:30:30;;;;;;;;;;;;;;;;;;2098835;28;1851;-83
2021/10/03 02:31:31;;;;;;;;;;;;;;;;;;2099789;28;1391;-82
2021/10/03 02:32:33;;;;;;;;;;;;;;;;;;2108001;28;1101;-83
2021/10/03 02:33:34;;;;;;;;;;;;;;;;;;2108013;28;1661;-82
2021/10/03 02:34:36;;;;;;;;;;;;;;;;;;2099641;28;1567;-82
2021/10/03 02:35:38;;;;;;;;;;;;;;;;;;2099060;28;1362;-82
2021/10/03 02:36:43;;;;;;;;;;;;;;;;;;2107911;28;1666;-82
2021/10/03 02:37:44;;;;;;;;;;;;;;;;;;2108351;28;1367;-82
2021/10/03 02:38:47;;;;;;;;;;;;;;;;;;2107945;28;1522;-82
2021/10/03 02:39:48;;;;;;;;;;;;;;;;;;2099356;28;1278;-82
2021/10/03 02:40:51;;;;;;;;;;;;;;;;;;2091207;28;1317;-83
2021/10/03 02:41:52;;;;;;;;;;;;;;;;;;2091901;28;1338;-82
2021/10/03 02:42:54;;;;;;;;;;;;;;;;;;2091089;28;1914;-83
2021/10/03 02:43:56;;;;;;;;;;;;;;;;;;2091335;28;1186;-83
2021/10/03 02:44:58;;;;;;;;;;;;;;;;;;2091519;28;1267;-82
2021/10/03 02:46:00;;;;;;;;;;;;;;;;;;2098427;28;1308;-83
2021/10/03 02:47:02;;;;;;;;;;;;;;;;;;2099496;28;1429;-83
2021/10/03 02:48:04;;;;;;;;;;;;;;;;;;2099195;28;1386;-83
2021/10/03 02:49:06;;;;;;;;;;;;;;;;;;2091156;28;1576;-83
2021/10/03 02:50:07;;;;;;;;;;;;;;;;;;2090819;28;1937;-83
2021/10/03 02:51:10;;;;;;;;;;;;;;;;;;2082497;28;1327;-83
2021/10/03 02:52:11;;;;;;;;;;;;;;;;;;2091738;28;1514;-83
2021/10/03 02:53:13;;;;;;;;;;;;;;;;;;2091089;28;1626;-83
2021/10/03 02:54:15;;;;;;;;;;;;;;;;;;2091011;28;1326;-83
2021/10/03 02:55:17;;;;;;;;;;;;;;;;;;2092461;28;1847;-83
2021/10/03 02:56:20;;;;;;;;;;;;;;;;;;2090642;28;1293;-83
2021/10/03 02:57:22;;;;;;;;;;;;;;;;;;2091062;28;1297;-83
2021/10/03 02:58:27;;;;;;;;;;;;;;;;;;2091294;28;1204;-83
2021/10/03 02:59:28;;;;;;;;;;;;;;;;;;2099683;28;1362;-83
2021/10/03 03:00:30;;;;;;;;;;;;;;;;;;2101917;28;1291;-84
2021/10/03 03:01:31;;;;;;;;;;;;;;;;;;2107483;28;1468;-84
2021/10/03 03:02:33;;;;;;;;;;;;;;;;;;2107405;28;1270;-84
2021/10/03 03:03:35;;;;;;;;;;;;;;;;;;2099006;28;1993;-83
2021/10/03 03:04:37;;;;;;;;;;;;;;;;;;2091203;28;1330;-84
2021/10/03 03:05:38;;;;;;;;;;;;;;;;;;2090888;28;1275;-84
2021/10/03 03:06:41;;;;;;;;;;;;;;;;;;2090898;28;1282;-83
2021/10/03 03:07:41;;;;;;;;;;;;;;;;;;2091070;28;1386;-83
2021/10/03 03:08:45;;;;;;;;;;;;;;;;;;2082747;28;1343;-83
2021/10/03 03:09:48;;;;;;;;;;;;;;;;;;2075675;28;1479;-83
2021/10/03 03:10:50;;;;;;;;;;;;;;;;;;2083101;28;1444;-82
2021/10/03 03:11:51;;;;;;;;;;;;;;;;;;2099762;28;1261;-83
2021/10/03 03:12:53;;;;;;;;;;;;;;;;;;2107652;28;1218;-83
2021/10/03 03:13:54;;;;;;;;;;;;;;;;;;2107565;28;1268;-83
2021/10/03 03:14:56;;;;;;;;;;;;;;;;;;2099325;28;1344;-83
2021/10/03 03:15:57;;;;;;;;;;;;;;;;;;2097693;28;2021;-83
2021/10/03 03:17:13;;;;;;;;;;;;;;;;;;2098802;28;1207;-83
2021/10/03 03:18:14;;;;;;;;;;;;;;;;;;2116910;28;1980;-83
2021/10/03 03:19:16;;;;;;;;;;;;;;;;;;2116492;28;1250;-83
2021/10/03 03:20:17;;;;;;;;;;;;;;;;;;2108998;28;1324;-83
2021/10/03 03:21:19;;;;;;;;;;;;;;;;;;2124642;28;1307;-83
2021/10/03 03:22:20;;;;;;;;;;;;;;;;;;2107796;28;1657;-83
2021/10/03 03:23:22;;;;;;;;;;;;;;;;;;2107205;28;1902;-83
2021/10/03 03:24:22;;;;;;;;;;;;;;;;;;2115723;28;1320;-83
2021/10/03 03:25:26;;;;;;;;;;;;;;;;;;2115991;28;1875;-83
2021/10/03 03:26:26;;;;;;;;;;;;;;;;;;2116421;28;1355;-83
2021/10/03 03:27:29;;;;;;;;;;;;;;;;;;2107984;28;1372;-82
2021/10/03 03:28:31;;;;;;;;;;;;;;;;;;2099122;28;1438;-83
2021/10/03 03:29:32;;;;;;;;;;;;;;;;;;2107878;28;1414;-83
2021/10/03 03:30:34;;;;;;;;;;;;;;;;;;2106913;28;1352;-83
2021/10/03 03:31:35;;;;;;;;;;;;;;;;;;2107479;28;1201;-83
2021/10/03 03:32:37;;;;;;;;;;;;;;;;;;2107322;28;1314;-83
2021/10/03 03:33:39;;;;;;;;;;;;;;;;;;2115891;28;1211;-83
2021/10/03 03:34:39;;;;;;;;;;;;;;;;;;2116226;28;1322;-83
2021/10/03 03:35:43;;;;;;;;;;;;;;;;;;2107817;28;1333;-83
2021/10/03 03:36:45;;;;;;;;;;;;;;;;;;2115594;28;1345;-83
2021/10/03 03:37:45;;;;;;;;;;;;;;;;;;2107335;28;1257;-83
2021/10/03 03:38:48;;;;;;;;;;;;;;;;;;2107867;28;2101;-83
2021/10/03 03:39:49;;;;;;;;;;;;;;;;;;2107953;28;1256;-83
2021/10/03 03:40:52;;;;;;;;;;;;;;;;;;2107465;28;1337;-84
2021/10/03 03:41:53;;;;;;;;;;;;;;;;;;2107787;28;1269;-85
2021/10/03 03:42:55;;;;;;;;;;;;;;;;;;2107462;28;1333;-85
2021/10/03 03:43:56;;;;;;;;;;;;;;;;;;2113928;28;1976;-85
2021/10/03 03:44:58;;;;;;;;;;;;;;;;;;2111903;28;1320;-85
2021/10/03 03:45:59;;;;;;;;;;;;;;;;;;2113572;28;1322;-85
2021/10/03 03:47:01;;;;;;;;;;;;;;;;;;2116276;28;1335;-85
2021/10/03 03:48:02;;;;;;;;;;;;;;;;;;2116111;28;1194;-85
2021/10/03 03:49:04;;;;;;;;;;;;;;;;;;2115465;28;1240;-84
2021/10/03 03:50:07;;;;;;;;;;;;;;;;;;2124628;28;1254;-84
2021/10/03 03:51:09;;;;;;;;;;;;;;;;;;2115690;28;1266;-84
2021/10/03 03:52:10;;;;;;;;;;;;;;;;;;2107549;28;1335;-84
2021/10/03 03:53:15;;;;;;;;;;;;;;;;;;2115835;28;1193;-84
2021/10/03 03:54:15;;;;;;;;;;;;;;;;;;2117033;28;1293;-83
2021/10/03 03:55:18;;;;;;;;;;;;;;;;;;2115623;28;1684;-85
2021/10/03 03:56:22;;;;;;;;;;;;;;;;;;2115724;28;1420;-85
2021/10/03 03:57:23;;;;;;;;;;;;;;;;;;2124811;28;994;-85
2021/10/03 03:58:25;;;;;;;;;;;;;;;;;;2124402;28;1238;-85
2021/10/03 03:59:25;;;;;;;;;;;;;;;;;;2108029;28;1364;-84
2021/10/03 04:00:27;;;;;;;;;;;;;;;;;;2108650;28;1330;-84
2021/10/03 04:01:29;;;;;;;;;;;;;;;;;;2116619;28;1367;-84
2021/10/03 04:02:32;;;;;;;;;;;;;;;;;;2117409;28;1308;-85
2021/10/03 04:03:34;;;;;;;;;;;;;;;;;;2117642;28;1905;-85
2021/10/03 04:04:35;;;;;;;;;;;;;;;;;;2108288;28;1288;-85
2021/10/03 04:05:36;;;;;;;;;;;;;;;;;;2113154;28;1294;-85
2021/10/03 04:06:38;;;;;;;;;;;;;;;;;;2108854;28;1319;-85
2021/10/03 04:07:40;;;;;;;;;;;;;;;;;;2109230;28;1452;-85
2021/10/03 04:08:42;;;;;;;;;;;;;;;;;;2108844;28;1285;-85
2021/10/03 04:09:43;;;;;;;;;;;;;;;;;;2117520;28;1462;-85
2021/10/03 04:10:45;;;;;;;;;;;;;;;;;;2116833;28;1311;-85
2021/10/03 04:11:48;;;;;;;;;;;;;;;;;;2117903;28;1440;-85
2021/10/03 04:12:50;;;;;;;;;;;;;;;;;;2117518;28;1269;-85
2021/10/03 04:13:51;;;;;;;;;;;;;;;;;;2125254;27;1236;-85
2021/10/03 04:14:53;;;;;;;;;;;;;;;;;;2117044;28;1212;-84
2021/10/03 04:15:54;;;;;;;;;;;;;;;;;;2108538;28;1172;-84
2021/10/03 04:16:56;;;;;;;;;;;;;;;;;;2108517;28;1322;-84
2021/10/03 04:17:56;;;;;;;;;;;;;;;;;;2108879;28;1272;-84
2021/10/03 04:18:58;;;;;;;;;;;;;;;;;;2120446;27;1335;-84
2021/10/03 04:19:59;;;;;;;;;;;;;;;;;;2134171;27;1194;-84
2021/10/03 04:21:01;;;;;;;;;;;;;;;;;;2117335;28;1479;-84
2021/10/03 04:22:02;;;;;;;;;;;;;;;;;;2117253;28;1239;-84
2021/10/03 04:23:04;;;;;;;;;;;;;;;;;;2117051;28;1202;-84
2021/10/03 04:24:05;;;;;;;;;;;;;;;;;;2109171;28;1975;-84
2021/10/03 04:25:08;;;;;;;;;;;;;;;;;;2109057;28;1290;-83
2021/10/03 04:26:09;;;;;;;;;;;;;;;;;;2107312;28;1515;-84
2021/10/03 04:27:21;;;;;;;;;;;;;;;;;;2117612;28;1717;-84
2021/10/03 04:28:24;;;;;;;;;;;;;;;;;;2110406;28;1434;-84
2021/10/03 04:29:26;;;;;;;;;;;;;;;;;;2109354;28;1320;-84
2021/10/03 04:30:26;;;;;;;;;;;;;;;;;;2108656;28;1385;-84
2021/10/03 04:31:28;;;;;;;;;;;;;;;;;;2117268;28;1373;-85
2021/10/03 04:32:29;;;;;;;;;;;;;;;;;;2125512;27;1500;-84
2021/10/03 04:33:31;;;;;;;;;;;;;;;;;;2117199;28;1347;-84
2021/10/03 04:34:32;;;;;;;;;;;;;;;;;;2117355;27;1347;-84
2021/10/03 04:35:34;;;;;;;;;;;;;;;;;;2109041;28;1242;-84
2021/10/03 04:36:35;;;;;;;;;;;;;;;;;;2109006;28;1402;-84
2021/10/03 04:37:37;;;;;;;;;;;;;;;;;;2108600;28;1619;-84
2021/10/03 04:38:39;;;;;;;;;;;;;;;;;;2117267;28;1238;-84
2021/10/03 04:39:41;;;;;;;;;;;;;;;;;;2109859;28;1290;-85
2021/10/03 04:40:42;;;;;;;;;;;;;;;;;;2108911;28;1309;-85
2021/10/03 04:41:44;;;;;;;;;;;;;;;;;;2106845;28;1317;-85
2021/10/03 04:42:47;;;;;;;;;;;;;;;;;;2108969;28;1288;-84
2021/10/03 04:43:51;;;;;;;;;;;;;;;;;;2100860;28;1984;-85
2021/10/03 04:44:51;;;;;;;;;;;;;;;;;;2100750;28;1323;-85
2021/10/03 04:45:54;;;;;;;;;;;;;;;;;;2108405;28;1326;-85
2021/10/03 04:46:55;;;;;;;;;;;;;;;;;;2117090;28;1356;-85
2021/10/03 04:47:57;;;;;;;;;;;;;;;;;;2117678;28;1234;-85
2021/10/03 04:48:57;;;;;;;;;;;;;;;;;;2108433;28;1424;-85
2021/10/03 04:50:00;;;;;;;;;;;;;;;;;;2109071;28;1325;-84
2021/10/03 04:51:01;;;;;;;;;;;;;;;;;;2117422;28;1407;-85
2021/10/03 04:52:04;;;;;;;;;;;;;;;;;;2108673;28;1236;-85
2021/10/03 04:53:05;;;;;;;;;;;;;;;;;;2108188;28;1183;-85
2021/10/03 04:54:06;;;;;;;;;;;;;;;;;;2108742;28;1945;-85
2021/10/03 04:55:08;;;;;;;;;;;;;;;;;;2110227;28;1541;-86
2021/10/03 04:56:10;;;;;;;;;;;;;;;;;;2108981;28;1237;-85
2021/10/03 04:57:11;;;;;;;;;;;;;;;;;;2108904;28;1382;-85
2021/10/03 04:58:16;;;;;;;;;;;;;;;;;;2109332;28;1302;-85
2021/10/03 04:59:16;;;;;;;;;;;;;;;;;;2109126;28;1218;-85
2021/10/03 05:00:18;;;;;;;;;;;;;;;;;;2110425;28;1660;-86
2021/10/03 05:01:19;;;;;;;;;;;;;;;;;;2112768;28;1305;-85
2021/10/03 05:02:21;;;;;;;;;;;;;;;;;;2108335;28;1475;-86
2021/10/03 05:03:22;;;;;;;;;;;;;;;;;;2102826;28;1380;-85
2021/10/03 05:04:24;;;;;;;;;;;;;;;;;;2125238;27;1902;-85
2021/10/03 05:05:26;;;;;;;;;;;;;;;;;;2134506;27;1307;-85
2021/10/03 05:06:27;;;;;;;;;;;;;;;;;;2117362;27;1336;-85
2021/10/03 05:07:29;;;;;;;;;;;;;;;;;;2114043;28;1383;-85
2021/10/03 05:08:30;;;;;;;;;;;;;;;;;;2108445;28;1460;-85
2021/10/03 05:09:33;;;;;;;;;;;;;;;;;;2109171;28;1388;-85
2021/10/03 05:10:34;;;;;;;;;;;;;;;;;;2120287;27;2041;-86
2021/10/03 05:11:36;;;;;;;;;;;;;;;;;;2117239;28;1469;-86
2021/10/03 05:12:37;;;;;;;;;;;;;;;;;;2116810;28;1443;-86
2021/10/03 05:13:40;;;;;;;;;;;;;;;;;;2116873;28;1187;-86
2021/10/03 05:14:41;;;;;;;;;;;;;;;;;;2116297;28;1255;-85
2021/10/03 05:15:43;;;;;;;;;;;;;;;;;;2116652;28;2106;-85
2021/10/03 05:16:46;;;;;;;;;;;;;;;;;;2115929;27;1454;-85
2021/10/03 05:17:48;;;;;;;;;;;;;;;;;;2117440;27;1311;-85
2021/10/03 05:18:49;;;;;;;;;;;;;;;;;;2108434;28;1275;-85
2021/10/03 05:19:51;;;;;;;;;;;;;;;;;;2108470;28;1340;-85
2021/10/03 05:20:52;;;;;;;;;;;;;;;;;;2115981;28;1307;-85
2021/10/03 05:21:54;;;;;;;;;;;;;;;;;;2117199;28;1267;-85
2021/10/03 05:22:59;;;;;;;;;;;;;;;;;;2108533;28;1188;-85
2021/10/03 05:24:02;;;;;;;;;;;;;;;;;;2116305;28;1918;-85
2021/10/03 05:25:03;;;;;;;;;;;;;;;;;;2101078;28;1403;-85
2021/10/03 05:26:05;;;;;;;;;;;;;;;;;;2124676;27;1456;-83
2021/10/03 05:27:07;;;;;;;;;;;;;;;;;;2116745;28;1189;-83
2021/10/03 05:28:09;;;;;;;;;;;;;;;;;;2108049;28;1314;-82
2021/10/03 05:29:11;;;;;;;;;;;;;;;;;;2116991;28;853;-82
2021/10/03 05:30:14;;;;;;;;;;;;;;;;;;2116787;28;1286;-82
2021/10/03 05:31:15;;;;;;;;;;;;;;;;;;2108116;28;1223;-82
2021/10/03 05:32:17;;;;;;;;;;;;;;;;;;2108039;28;1627;-82
2021/10/03 05:33:17;;;;;;;;;;;;;;;;;;2116706;28;1847;-82
2021/10/03 05:34:20;;;;;;;;;;;;;;;;;;2116137;28;1229;-82
2021/10/03 05:35:20;;;;;;;;;;;;;;;;;;2114724;28;1853;-82
2021/10/03 05:36:22;;;;;;;;;;;;;;;;;;2107681;28;1314;-82
2021/10/03 05:37:24;;;;;;;;;;;;;;;;;;2107938;28;1247;-82
2021/10/03 05:38:25;;;;;;;;;;;;;;;;;;2099940;28;1235;-82
2021/10/03 05:39:27;;;;;;;;;;;;;;;;;;2099854;28;1361;-81
2021/10/03 05:40:28;;;;;;;;;;;;;;;;;;2107855;28;1508;-82
2021/10/03 05:41:30;;;;;;;;;;;;;;;;;;2116701;28;1309;-82
2021/10/03 05:42:32;;;;;;;;;;;;;;;;;;2125270;27;1210;-81
2021/10/03 05:43:37;;;;;;;;;;;;;;;;;;2115896;28;2104;-81
2021/10/03 05:44:42;;;;;;;;;;;;;;;;;;2100284;28;1985;-82
2021/10/03 05:45:43;;;;;;;;;;;;;;;;;;2109072;27;1539;-82
2021/10/03 05:46:45;;;;;;;;;;;;;;;;;;2116250;28;1593;-81
2021/10/03 05:47:46;;;;;;;;;;;;;;;;;;2108553;28;1681;-81
2021/10/03 05:48:47;;;;;;;;;;;;;;;;;;2108179;28;1234;-82
2021/10/03 05:49:48;;;;;;;;;;;;;;;;;;2107964;28;1510;-82
2021/10/03 05:50:50;;;;;;;;;;;;;;;;;;2113943;28;1681;-81
2021/10/03 05:51:52;;;;;;;;;;;;;;;;;;2116823;28;1469;-81
2021/10/03 05:52:53;;;;;;;;;;;;;;;;;;2116161;28;1535;-81
2021/10/03 05:53:54;;;;;;;;;;;;;;;;;;2107637;28;1241;-80
2021/10/03 05:54:56;;;;;;;;;;;;;;;;;;2116116;28;1667;-81
2021/10/03 05:55:57;;;;;;;;;;;;;;;;;;2114713;28;1995;-81
2021/10/03 05:56:59;;;;;;;;;;;;;;;;;;2115756;28;1498;-82
2021/10/03 05:58:00;;;;;;;;;;;;;;;;;;2125388;27;822;-81
2021/10/03 05:59:02;;;;;;;;;;;;;;;;;;2125350;27;868;-81
2021/10/03 06:00:06;;;;;;;;;;;;;;;;;;2124933;27;1214;-81
2021/10/03 06:01:08;;;;;;;;;;;;;;;;;;2116433;28;1470;-81
2021/10/03 06:02:10;;;;;;;;;;;;;;;;;;2116365;28;1528;-81
2021/10/03 06:03:11;;;;;;;;;;;;;;;;;;2116014;27;1520;-82
2021/10/03 06:04:13;;;;;;;;;;;;;;;;;;2116773;28;1902;-81
2021/10/03 06:05:14;;;;;;;;;;;;;;;;;;2116350;28;2239;-82
2021/10/03 06:06:16;;;;;;;;;;;;;;;;;;2124920;27;1612;-86
2021/10/03 06:07:16;;;;;;;;;;;;;;;;;;2116082;28;1656;-81
2021/10/03 06:08:19;;;;;;;;;;;;;;;;;;2116123;28;1534;-81
2021/10/03 06:09:20;;;;;;;;;;;;;;;;;;2108419;28;1312;-81
2021/10/03 06:10:21;;;;;;;;;;;;;;;;;;2115503;28;1833;-82
2021/10/03 06:11:23;;;;;;;;;;;;;;;;;;2107893;28;1556;-82
2021/10/03 06:12:24;;;;;;;;;;;;;;;;;;2116612;28;883;-82
2021/10/03 06:13:26;;;;;;;;;;;;;;;;;;2124426;27;1728;-81
2021/10/03 06:14:27;;;;;;;;;;;;;;;;;;2124926;27;1719;-81
2021/10/03 06:15:30;;;;;;;;;;;;;;;;;;2110927;28;2106;-80
2021/10/03 06:16:31;;;;;;;;;;;;;;;;;;2107871;28;1392;-82
2021/10/03 06:17:33;;;;;;;;;;;;;;;;;;2107706;28;1493;-81
2021/10/03 06:18:33;;;;;;;;;;;;;;;;;;2110636;28;2006;-82
2021/10/03 06:19:35;;;;;;;;;;;;;;;;;;2116646;28;1283;-80
2021/10/03 06:20:36;;;;;;;;;;;;;;;;;;2107421;28;1573;-81
2021/10/03 06:21:39;;;;;;;;;;;;;;;;;;2108126;28;1564;-81
2021/10/03 06:22:44;;;;;;;;;;;;;;;;;;2115983;27;1438;-81
2021/10/03 06:23:46;;;;;;;;;;;;;;;;;;2116449;28;1736;-81
2021/10/03 06:24:47;;;;;;;;;;;;;;;;;;2108083;28;2035;-81
2021/10/03 06:25:48;;;;;;;;;;;;;;;;;;2116084;28;1222;-81
2021/10/03 06:26:49;;;;;;;;;;;;;;;;;;2124363;27;1264;-81
2021/10/03 06:27:51;;;;;;;;;;;;;;;;;;2116241;28;1464;-81
2021/10/03 06:28:53;;;;;;;;;;;;;;;;;;2107927;28;1258;-81
2021/10/03 06:29:54;;;;;;;;;;;;;;;;;;2108203;28;1362;-81
2021/10/03 06:30:58;;;;;;;;;;;;;;;;;;2116300;28;1211;-82
2021/10/03 06:31:59;;;;;;;;;;;;;;;;;;2115579;28;1274;-81
2021/10/03 06:33:01;;;;;;;;;;;;;;;;;;2107861;28;1207;-81
2021/10/03 06:34:01;;;;;;;;;;;;;;;;;;2108040;28;1372;-80
2021/10/03 06:35:03;;;;;;;;;;;;;;;;;;2107955;28;1674;-82
2021/10/03 06:36:06;;;;;;;;;;;;;;;;;;2115372;27;2134;-81
2021/10/03 06:37:06;;;;;;;;;;;;;;;;;;2116451;27;1617;-81
2021/10/03 06:38:08;;;;;;;;;;;;;;;;;;2115509;28;1735;-82
2021/10/03 06:39:09;;;;;;;;;;;;;;;;;;2107672;28;1202;-83
2021/10/03 06:40:11;;;;;;;;;;;;;;;;;;2099550;28;1417;-84
2021/10/03 06:41:12;;;;;;;;;;;;;;;;;;2107801;28;1621;-83
2021/10/03 06:42:14;;;;;;;;;;;;;;;;;;2115921;28;1432;-83
2021/10/03 06:43:15;;;;;;;;;;;;;;;;;;2115674;28;1211;-83
2021/10/03 06:44:17;;;;;;;;;;;;;;;;;;2109207;28;1918;-83
2021/10/03 06:45:17;;;;;;;;;;;;;;;;;;2116036;28;1219;-82
2021/10/03 06:46:21;;;;;;;;;;;;;;;;;;2123502;27;1457;-82
2021/10/03 06:47:22;;;;;;;;;;;;;;;;;;2132910;27;1550;-81
2021/10/03 06:48:24;;;;;;;;;;;;;;;;;;2133252;27;1726;-82
2021/10/03 06:49:25;;;;;;;;;;;;;;;;;;2133087;27;1218;-80
2021/10/03 06:50:27;;;;;;;;;;;;;;;;;;2115925;28;2019;-82
2021/10/03 06:51:29;;;;;;;;;;;;;;;;;;2115970;28;1292;-82
2021/10/03 06:52:31;;;;;;;;;;;;;;;;;;2116431;28;1579;-82
2021/10/03 06:53:33;;;;;;;;;;;;;;;;;;2124298;27;1344;-82
2021/10/03 06:54:36;;;;;;;;;;;;;;;;;;2115957;28;1700;-83
2021/10/03 06:55:38;;;;;;;;;;;;;;;;;;2107830;28;1704;-82
2021/10/03 06:56:40;;;;;;;;;;;;;;;;;;2133181;27;1425;-82
2021/10/03 06:57:41;;;;;;;;;;;;;;;;;;2128409;27;1472;-82
2021/10/03 06:58:43;;;;;;;;;;;;;;;;;;2115573;28;1718;-82
2021/10/03 06:59:45;;;;;;;;;;;;;;;;;;2116534;28;1665;-82
2021/10/03 07:00:45;;;;;;;;;;;;;;;;;;2124969;27;1987;-82
2021/10/03 07:01:50;;;;;;;;;;;;;;;;;;2116898;28;1342;-82
2021/10/03 07:02:51;;;;;;;;;;;;;;;;;;2117129;28;1659;-82
2021/10/03 07:03:53;;;;;;;;;;;;;;;;;;2123304;27;1554;-82
2021/10/03 07:04:54;;;;;;;;;;;;;;;;;;2116132;28;1922;-81
2021/10/03 07:05:56;;;;;;;;;;;;;;;;;;2115584;28;2083;-82
2021/10/03 07:06:57;;;;;;;;;;;;;;;;;;2116501;27;1434;-83
2021/10/03 07:07:59;;;;;;;;;;;;;;;;;;2114557;28;1375;-81
2021/10/03 07:09:01;;;;;;;;;;;;;;;;;;2107461;28;1186;-82
2021/10/03 07:10:02;;;;;;;;;;;;;;;;;;2121090;27;1763;-81